Airfield :







YOU CAN JOIN US ON...

 
LOGIN :

Register | Disclaimer

   EN    FR    IT 

 









Legend :    VFR   Marginal VFR   IFR   Intensive IFR   Very Intensive IFR
Visi :
Ceiling :
>= 8 km
>= 3000ft
5 to 8 km
1000 to 3000 ft
1500m to 5 km
500 to 1000 ft
800 to 1500m
200 to 500 ft
< 800m
< 200 ft
Symbols :   Thunderstorms  Fog  Heavy snow  Heavy precipitations  Wind > 20 kt






- Airport Elevation : 228 ft


KFSO - Franklin County State

CURRENT METAR :
  • 060516Z AUTO 00000KT 10SM BKN048 04/02 A3003 RMK AO2 T00400024

EXPIRED METARs :
  • 060455Z AUTO 00000KT 10SM SCT048 04/02 A3003 RMK AO2 T00410024 401170040
  • 060435Z AUTO 00000KT 10SM CLR 05/03 A3003 RMK AO2 T00460031
  • 060415Z AUTO 00000KT 10SM CLR 05/03 A3003 RMK AO2 T00530026
  • 060355Z AUTO 00000KT 10SM CLR 06/03 A3002 RMK AO2 T00550028
  • 060336Z AUTO 00000KT 10SM CLR 06/03 A3002 RMK AO2 T00630029
  • 060316Z AUTO 00000KT 10SM CLR 07/03 A3002 RMK AO2 T00710033
  • 060256Z AUTO 00000KT 10SM SCT041 SCT048 08/04 A3002 RMK AO2 T00780036
  • 060235Z AUTO 31003KT 10SM BKN039 OVC048 09/05 A3002 RMK AO2 T00850047

TAF N/A



MET'MAP, your aeronautical weather chart ! - Copyright ORBIFLY December 2007 - Disclaimer

ORBIFLY MET'MAP TEAM :

Programming & Development : Alexandra Zaïnal
Concept & original design : Baudouin d'Aumeries
Assistance for programming : Marc-Olivier Méhu
Technical & hardware support : Manuel Goepfert

Contact : metmap@orbifly.com




SOURCES & CREDITS :

   NOAA